Time;durP1;ratioP1;P1;durP2;ratioP2;P2;SDS_P1;SDS_P2;PMS_P1;PMS_P2;Temp;Humidity;BMP_temperature;BMP_pressure;BME280_temperature;BME280_humidity;BME280_pressure;Samples;Min_cycle;Max_cycle;Signal;HPM_P1;HPM_P2
2023/09/06 00:00:55;;;;;;;1.00;1.00;;;23.10;99.90;;;;;;5021752;28;20671;-67
2023/09/06 00:03:23;;;;;;;1.75;1.15;;;23.10;99.90;;;;;;5015111;28;20568;-67
2023/09/06 00:05:50;;;;;;;1.20;1.20;;;23.10;99.90;;;;;;5021012;28;20290;-66
2023/09/06 00:08:17;;;;;;;1.27;1.20;;;23.10;99.90;;;;;;5019042;28;20206;-66
2023/09/06 00:10:47;;;;;;;1.17;1.17;;;23.10;99.90;;;;;;5028549;28;20634;-67
2023/09/06 00:13:16;;;;;;;4.65;1.10;;;23.00;99.90;;;;;;5022645;28;20253;-66
2023/09/06 00:15:43;;;;;;;0.90;0.90;;;23.00;99.90;;;;;;5029982;28;20203;-66
2023/09/06 00:18:11;;;;;;;1.10;1.10;;;23.00;99.90;;;;;;4994932;28;20623;-67
2023/09/06 00:20:39;;;;;;;1.25;1.17;;;23.00;99.90;;;;;;5029073;28;20714;-67
2023/09/06 00:23:09;;;;;;;1.15;1.15;;;23.00;99.90;;;;;;5026219;28;20279;-66
2023/09/06 00:25:37;;;;;;;0.95;0.95;;;23.00;99.90;;;;;;5009998;28;20217;-67
2023/09/06 00:28:07;;;;;;;1.30;1.30;;;23.00;99.90;;;;;;5001656;28;20301;-66
2023/09/06 00:30:35;;;;;;;1.20;1.10;;;22.90;99.90;;;;;;5023636;28;20282;-66
2023/09/06 00:33:05;;;;;;;1.10;1.10;;;22.90;99.90;;;;;;5014347;28;20634;-67
2023/09/06 00:35:33;;;;;;;1.00;1.00;;;22.90;99.90;;;;;;5010955;28;20615;-66
2023/09/06 00:38:04;;;;;;;1.00;1.00;;;22.90;99.90;;;;;;5011631;28;20199;-67
2023/09/06 00:40:35;;;;;;;1.00;1.00;;;22.90;99.90;;;;;;4993462;28;20219;-67
2023/09/06 00:43:04;;;;;;;1.10;1.10;;;22.90;99.90;;;;;;5010989;28;20479;-67
2023/09/06 00:45:44;;;;;;;0.95;0.95;;;22.70;99.90;;;;;;5006008;28;20210;-67
2023/09/06 00:48:13;;;;;;;1.30;1.20;;;22.90;99.90;;;;;;4987128;28;20319;-67
2023/09/06 00:50:43;;;;;;;1.02;1.02;;;22.80;99.90;;;;;;5013358;28;20207;-66
2023/09/06 00:53:11;;;;;;;1.45;1.30;;;22.80;99.90;;;;;;5011114;28;20237;-66
2023/09/06 00:55:41;;;;;;;1.10;1.10;;;22.90;99.90;;;;;;5012132;28;20558;-67
2023/09/06 00:58:09;;;;;;;0.93;0.88;;;22.80;99.90;;;;;;5010939;28;20619;-67
2023/09/06 01:00:38;;;;;;;1.02;1.02;;;22.80;99.90;;;;;;5010487;28;20285;-67
2023/09/06 01:03:06;;;;;;;1.48;1.10;;;22.80;99.90;;;;;;5009073;28;20203;-67
2023/09/06 01:05:42;;;;;;;1.25;1.15;;;22.80;99.90;;;;;;5010478;28;20226;-66
2023/09/06 01:08:14;;;;;;;1.00;1.00;;;22.80;99.90;;;;;;4994765;28;20618;-67
2023/09/06 01:10:41;;;;;;;1.83;1.40;;;22.80;99.90;;;;;;5010769;28;20217;-66
2023/09/06 01:13:08;;;;;;;1.63;1.52;;;22.80;99.90;;;;;;4995338;28;20365;-66
2023/09/06 01:15:38;;;;;;;1.40;1.40;;;22.70;99.90;;;;;;5011227;28;20225;-65
2023/09/06 01:18:07;;;;;;;1.58;1.40;;;22.70;99.90;;;;;;4991480;28;20291;-67
2023/09/06 01:20:42;;;;;;;1.42;1.33;;;22.70;99.90;;;;;;5009635;28;20242;-67
2023/09/06 01:23:30;;;;;;;1.20;1.20;;;22.60;99.90;;;;;;5010866;28;20203;-66
2023/09/06 01:25:59;;;;;;;1.40;1.30;;;22.60;99.90;;;;;;5010915;28;20206;-67
2023/09/06 01:28:27;;;;;;;1.30;1.30;;;22.60;99.90;;;;;;4997187;28;20322;-67
2023/09/06 01:30:54;;;;;;;1.50;1.40;;;22.60;99.90;;;;;;5009698;28;20658;-67
2023/09/06 01:33:22;;;;;;;1.23;1.23;;;22.50;99.90;;;;;;4996382;28;20701;-67
2023/09/06 01:35:50;;;;;;;1.25;1.25;;;22.50;99.90;;;;;;4997187;28;20293;-67
2023/09/06 01:38:17;;;;;;;1.20;1.20;;;22.50;99.90;;;;;;5015273;28;20206;-67
2023/09/06 01:40:47;;;;;;;1.50;1.30;;;22.50;99.90;;;;;;5014482;28;20202;-67
2023/09/06 01:43:18;;;;;;;1.13;1.13;;;22.50;99.90;;;;;;5012967;28;20281;-67
2023/09/06 01:45:50;;;;;;;1.00;1.00;;;22.50;99.90;;;;;;5005419;28;20198;-66
2023/09/06 01:48:18;;;;;;;1.55;1.42;;;22.50;99.90;;;;;;5005842;28;20203;-67
2023/09/06 01:50:46;;;;;;;0.98;0.98;;;22.50;99.90;;;;;;5023399;28;20193;-67
2023/09/06 01:53:14;;;;;;;1.23;1.20;;;22.50;99.90;;;;;;5016154;28;20257;-67
2023/09/06 01:55:42;;;;;;;1.00;1.00;;;22.50;99.90;;;;;;5001203;28;20204;-66
2023/09/06 01:58:12;;;;;;;1.17;1.08;;;22.40;99.90;;;;;;5016714;28;20210;-67
2023/09/06 02:00:42;;;;;;;1.08;1.08;;;22.40;99.90;;;;;;5020898;28;20191;-66
2023/09/06 02:03:10;;;;;;;1.30;1.20;;;22.40;99.90;;;;;;5005666;28;20671;-67
2023/09/06 02:05:39;;;;;;;1.10;1.10;;;22.40;99.90;;;;;;5021736;28;20670;-67
2023/09/06 02:08:06;;;;;;;1.05;1.05;;;22.40;99.90;;;;;;5015552;28;20264;-65
2023/09/06 02:10:33;;;;;;;1.10;1.10;;;22.40;99.90;;;;;;5031971;28;20186;-67
2023/09/06 02:13:02;;;;;;;1.00;1.00;;;22.30;99.90;;;;;;5022375;28;20272;-65
2023/09/06 02:15:34;;;;;;;0.90;0.90;;;22.30;99.90;;;;;;5026318;28;20202;-66
2023/09/06 02:18:01;;;;;;;0.80;0.80;;;22.20;99.90;;;;;;5005572;28;20205;-66
2023/09/06 02:20:28;;;;;;;1.00;1.00;;;22.30;99.90;;;;;;5021548;28;20202;-67
2023/09/06 02:22:56;;;;;;;0.95;0.95;;;22.30;99.90;;;;;;5033620;28;20213;-67
2023/09/06 02:25:26;;;;;;;0.90;0.90;;;22.30;99.90;;;;;;5021439;28;20205;-67
2023/09/06 02:27:53;;;;;;;1.05;1.00;;;22.30;99.90;;;;;;5013115;28;20192;-66
2023/09/06 02:30:21;;;;;;;1.08;1.08;;;22.20;99.90;;;;;;4996637;28;20287;-67
2023/09/06 02:32:51;;;;;;;1.05;1.05;;;22.20;99.90;;;;;;5012778;28;20212;-67
2023/09/06 02:35:19;;;;;;;1.08;1.08;;;22.20;99.90;;;;;;5011791;28;20191;-66
2023/09/06 02:37:46;;;;;;;1.17;1.08;;;22.10;99.90;;;;;;5007208;28;20294;-65
2023/09/06 02:40:14;;;;;;;1.05;1.02;;;22.00;99.90;;;;;;5013979;28;20191;-66
2023/09/06 02:42:41;;;;;;;0.98;0.98;;;22.00;99.90;;;;;;5013561;28;20199;-66
2023/09/06 02:45:10;;;;;;;1.48;1.38;;;21.90;99.90;;;;;;5014836;28;20199;-66
2023/09/06 02:47:47;;;;;;;1.23;1.15;;;21.80;99.90;;;;;;5009894;28;20298;-67
2023/09/06 02:50:17;;;;;;;1.17;1.10;;;21.90;99.90;;;;;;4983787;28;20675;-67
2023/09/06 02:52:45;;;;;;;0.95;0.95;;;21.90;99.90;;;;;;5001879;28;20242;-66
2023/09/06 02:55:14;;;;;;;1.15;1.13;;;21.80;99.90;;;;;;5013520;28;20663;-67
2023/09/06 02:57:41;;;;;;;1.17;1.15;;;21.80;99.90;;;;;;5027024;28;20261;-67
2023/09/06 03:00:24;;;;;;;1.10;1.10;;;21.80;99.90;;;;;;4995627;28;20203;-66
2023/09/06 03:02:52;;;;;;;1.02;0.90;;;21.80;99.90;;;;;;5001255;28;20635;-66
2023/09/06 03:05:21;;;;;;;1.20;1.20;;;21.80;99.90;;;;;;5013014;28;20302;-66
2023/09/06 03:07:50;;;;;;;2.75;1.05;;;21.70;99.90;;;;;;5002348;28;20360;-65
2023/09/06 03:10:20;;;;;;;1.58;1.48;;;21.70;99.90;;;;;;5007268;28;20672;-66
2023/09/06 03:12:49;;;;;;;1.35;1.30;;;21.70;99.90;;;;;;4999245;28;20240;-66
2023/09/06 03:15:16;;;;;;;1.48;1.30;;;21.70;99.90;;;;;;5006128;28;20258;-66
2023/09/06 03:17:46;;;;;;;1.10;1.10;;;21.70;99.90;;;;;;5013076;28;20206;-66
2023/09/06 03:20:31;;;;;;;1.27;1.20;;;21.60;99.90;;;;;;5013298;28;20242;-66
2023/09/06 03:23:01;;;;;;;0.95;0.95;;;21.60;99.90;;;;;;4998939;28;20204;-67
2023/09/06 03:25:29;;;;;;;1.17;1.10;;;21.60;99.90;;;;;;5007032;28;20650;-67
2023/09/06 03:28:00;;;;;;;1.10;1.10;;;21.60;99.90;;;;;;5001341;28;20273;-66
2023/09/06 03:30:31;;;;;;;1.10;1.10;;;21.60;99.90;;;;;;5010572;28;20693;-68
2023/09/06 03:32:59;;;;;;;0.80;0.80;;;21.60;99.90;;;;;;5020254;28;20203;-67
2023/09/06 03:35:29;;;;;;;1.20;1.20;;;21.60;99.90;;;;;;5023774;28;20194;-67
2023/09/06 03:37:56;;;;;;;1.00;1.00;;;21.60;99.90;;;;;;5013800;28;20233;-67
2023/09/06 03:40:34;;;;;;;1.02;1.02;;;21.60;99.90;;;;;;5023375;28;20302;-67
2023/09/06 03:43:05;;;;;;;1.00;1.00;;;21.60;99.90;;;;;;5026881;28;20285;-67
2023/09/06 03:45:34;;;;;;;1.20;1.20;;;21.50;99.90;;;;;;5010916;28;20205;-67
2023/09/06 03:48:04;;;;;;;1.30;1.10;;;21.50;99.90;;;;;;5029696;28;20289;-66
2023/09/06 03:50:32;;;;;;;1.10;1.10;;;21.50;99.90;;;;;;5029262;28;20183;-66
2023/09/06 03:52:59;;;;;;;1.10;1.00;;;21.50;99.90;;;;;;5025797;28;20210;-66
2023/09/06 03:55:28;;;;;;;2.33;1.10;;;21.50;99.90;;;;;;5027716;28;20302;-66
2023/09/06 03:57:55;;;;;;;1.00;1.00;;;21.50;99.90;;;;;;4990754;28;20211;-67
2023/09/06 04:00:27;;;;;;;1.08;1.02;;;21.40;99.90;;;;;;5005002;28;20210;-67
2023/09/06 04:03:10;;;;;;;1.10;1.00;;;21.40;99.90;;;;;;5012555;28;20249;-67
2023/09/06 04:05:40;;;;;;;1.00;1.00;;;21.40;99.90;;;;;;5005961;28;20205;-67
2023/09/06 04:08:09;;;;;;;1.10;1.00;;;21.40;99.90;;;;;;5013697;28;20203;-67
2023/09/06 04:10:38;;;;;;;1.10;1.10;;;21.40;99.90;;;;;;5009498;28;20683;-67
2023/09/06 04:13:08;;;;;;;1.10;1.10;;;21.40;99.90;;;;;;5001518;28;20220;-67
2023/09/06 04:15:37;;;;;;;0.90;0.90;;;21.40;99.90;;;;;;4999904;28;20234;-66
2023/09/06 04:18:05;;;;;;;0.93;0.90;;;21.30;99.90;;;;;;5002201;28;20309;-66
2023/09/06 04:20:36;;;;;;;0.98;0.98;;;21.30;99.90;;;;;;4996348;28;20216;-66
2023/09/06 04:23:05;;;;;;;1.20;1.10;;;21.30;99.90;;;;;;5009746;28;20238;-67
2023/09/06 04:25:41;;;;;;;0.80;0.80;;;21.30;99.90;;;;;;5012647;28;20309;-66
2023/09/06 04:28:14;;;;;;;1.00;1.00;;;21.20;99.90;;;;;;4995429;28;20207;-66
2023/09/06 04:30:43;;;;;;;1.02;1.02;;;21.20;99.90;;;;;;5015811;28;20203;-67
2023/09/06 04:33:14;;;;;;;1.27;1.10;;;21.20;99.90;;;;;;4991416;28;20250;-66
2023/09/06 04:35:47;;;;;;;1.33;1.23;;;21.20;99.90;;;;;;4993737;28;20294;-67
2023/09/06 04:38:17;;;;;;;0.80;0.80;;;21.20;99.90;;;;;;4989941;28;20219;-66
2023/09/06 04:40:46;;;;;;;0.80;0.80;;;21.30;99.90;;;;;;4992674;28;20206;-67
2023/09/06 04:43:18;;;;;;;0.80;0.80;;;21.30;99.90;;;;;;5004908;28;20286;-67
2023/09/06 04:45:47;;;;;;;1.15;1.05;;;21.30;99.90;;;;;;5001992;28;20664;-65
2023/09/06 04:48:17;;;;;;;1.00;1.00;;;21.30;99.90;;;;;;5003706;28;20559;-66
2023/09/06 04:50:48;;;;;;;0.90;0.90;;;21.30;99.90;;;;;;4993104;28;20257;-65
2023/09/06 04:53:18;;;;;;;1.00;1.00;;;21.30;99.90;;;;;;5011086;28;20295;-66
2023/09/06 04:55:50;;;;;;;0.95;0.95;;;21.40;99.90;;;;;;4993449;28;20307;-66
2023/09/06 04:58:24;;;;;;;1.20;1.20;;;21.40;99.90;;;;;;4998629;28;20214;-65
2023/09/06 05:00:51;;;;;;;1.25;1.20;;;21.30;99.90;;;;;;4994787;28;20688;-67
2023/09/06 05:03:18;;;;;;;1.20;1.10;;;21.40;99.90;;;;;;5028089;28;20205;-67
2023/09/06 05:05:48;;;;;;;1.08;1.05;;;21.40;99.90;;;;;;5028610;28;20320;-66
2023/09/06 05:08:17;;;;;;;0.85;0.85;;;21.40;99.90;;;;;;5002180;28;20209;-66
2023/09/06 05:10:44;;;;;;;1.17;1.08;;;21.40;99.90;;;;;;5012455;28;20264;-66
2023/09/06 05:13:12;;;;;;;0.90;0.90;;;21.40;99.90;;;;;;5003684;28;20218;-67
2023/09/06 05:15:43;;;;;;;1.02;1.02;;;21.40;99.90;;;;;;5020862;28;20204;-67
2023/09/06 05:18:12;;;;;;;1.10;1.10;;;21.40;99.90;;;;;;4989414;28;20238;-67
2023/09/06 05:20:41;;;;;;;0.95;0.90;;;21.40;99.90;;;;;;5004762;28;20207;-67
2023/09/06 05:23:19;;;;;;;0.95;0.95;;;21.40;99.90;;;;;;4992867;28;20202;-66
2023/09/06 05:25:47;;;;;;;1.20;1.10;;;21.40;99.90;;;;;;4992269;28;20207;-68
2023/09/06 05:28:27;;;;;;;1.25;1.15;;;21.50;99.90;;;;;;4994701;28;20567;-67
2023/09/06 05:31:02;;;;;;;1.30;1.20;;;21.50;99.90;;;;;;5013117;28;20665;-67
2023/09/06 05:33:32;;;;;;;0.90;0.90;;;21.50;99.90;;;;;;4998294;28;20292;-67
2023/09/06 05:36:03;;;;;;;1.02;1.02;;;21.60;99.90;;;;;;5011023;28;20256;-67
2023/09/06 05:38:31;;;;;;;0.90;0.90;;;21.60;99.90;;;;;;5008819;28;20289;-67
2023/09/06 05:41:01;;;;;;;1.17;1.13;;;21.60;99.90;;;;;;5005403;28;20214;-66
2023/09/06 05:43:33;;;;;;;0.93;0.93;;;21.60;99.90;;;;;;5006172;28;20195;-66
2023/09/06 05:46:01;;;;;;;1.83;1.00;;;21.70;99.90;;;;;;5010502;28;20205;-67
2023/09/06 05:48:29;;;;;;;1.15;1.05;;;21.70;99.90;;;;;;4997663;28;20230;-67
2023/09/06 05:50:57;;;;;;;0.98;0.98;;;21.80;99.90;;;;;;4993527;28;20219;-68
2023/09/06 05:53:26;;;;;;;1.00;1.00;;;21.80;99.90;;;;;;5002544;28;20719;-67
2023/09/06 05:55:56;;;;;;;1.13;1.13;;;21.80;99.90;;;;;;5011107;28;20576;-67
2023/09/06 05:58:24;;;;;;;0.82;0.82;;;21.90;99.90;;;;;;5028394;28;20270;-67
2023/09/06 06:00:53;;;;;;;1.00;1.00;;;21.90;99.90;;;;;;5017380;28;20225;-67
2023/09/06 06:03:23;;;;;;;1.45;1.23;;;22.00;99.90;;;;;;5009947;28;20210;-67
2023/09/06 06:05:52;;;;;;;1.23;1.20;;;22.00;99.90;;;;;;5000461;28;20303;-67
2023/09/06 06:08:19;;;;;;;1.15;1.10;;;22.00;99.90;;;;;;5001653;28;20198;-67
2023/09/06 06:10:48;;;;;;;1.35;1.13;;;22.10;99.90;;;;;;5008555;28;20302;-67
2023/09/06 06:13:15;;;;;;;1.20;1.20;;;22.10;99.90;;;;;;5008936;28;20223;-67
2023/09/06 06:15:42;;;;;;;1.30;1.20;;;22.20;99.90;;;;;;5025999;28;20191;-67
2023/09/06 06:18:10;;;;;;;1.00;1.00;;;22.20;99.90;;;;;;5019434;28;20200;-67
2023/09/06 06:20:38;;;;;;;1.00;1.00;;;22.30;99.90;;;;;;5021517;28;20635;-66
2023/09/06 06:23:05;;;;;;;1.30;1.30;;;22.30;99.90;;;;;;4997405;28;20289;-65
2023/09/06 06:25:32;;;;;;;1.10;1.10;;;22.40;99.90;;;;;;5021798;28;20218;-67
2023/09/06 06:28:00;;;;;;;0.98;0.98;;;22.40;99.90;;;;;;5023232;28;20203;-66
2023/09/06 06:30:27;;;;;;;1.00;1.00;;;22.50;99.90;;;;;;5012331;28;20566;-66
2023/09/06 06:32:55;;;;;;;0.90;0.90;;;22.50;99.90;;;;;;5025807;28;20195;-66
2023/09/06 06:35:22;;;;;;;0.90;0.90;;;22.60;99.90;;;;;;5011177;28;20305;-67
2023/09/06 06:37:51;;;;;;;0.80;0.80;;;22.60;99.90;;;;;;5010898;28;20207;-68
2023/09/06 06:40:21;;;;;;;1.05;1.00;;;22.70;99.90;;;;;;5013682;28;20206;-67
2023/09/06 06:42:48;;;;;;;0.98;0.98;;;22.70;99.90;;;;;;5016339;28;20643;-66
2023/09/06 06:45:15;;;;;;;1.42;0.90;;;22.70;99.90;;;;;;5026712;28;20191;-67
2023/09/06 06:47:43;;;;;;;0.90;0.90;;;22.80;99.90;;;;;;5029938;28;20205;-66
2023/09/06 06:50:10;;;;;;;0.98;0.98;;;22.80;99.90;;;;;;5026704;28;20593;-66
2023/09/06 06:52:43;;;;;;;1.10;1.10;;;22.90;99.90;;;;;;5007295;28;20218;-66
2023/09/06 06:55:12;;;;;;;2.42;1.10;;;23.00;99.90;;;;;;5027925;28;20689;-67
2023/09/06 06:57:39;;;;;;;1.60;1.20;;;23.00;99.90;;;;;;5031917;28;20205;-66
2023/09/06 07:00:11;;;;;;;1.13;1.13;;;23.10;99.90;;;;;;5020214;28;20203;-65
2023/09/06 07:02:38;;;;;;;1.13;1.13;;;23.10;99.90;;;;;;5032216;28;20686;-66
2023/09/06 07:05:05;;;;;;;1.20;1.20;;;23.20;99.90;;;;;;5019034;28;20234;-67
2023/09/06 07:07:32;;;;;;;2.85;1.10;;;23.30;99.90;;;;;;5031492;28;20527;-67
2023/09/06 07:10:02;;;;;;;1.02;1.02;;;23.30;99.90;;;;;;5021013;28;20199;-67
2023/09/06 07:12:31;;;;;;;1.42;1.42;;;23.30;99.90;;;;;;5032057;28;20283;-67
2023/09/06 07:14:58;;;;;;;1.20;1.20;;;23.30;99.90;;;;;;5014268;28;20208;-66
2023/09/06 07:17:25;;;;;;;1.13;1.13;;;23.40;99.90;;;;;;4998438;28;20310;-66
2023/09/06 07:19:55;;;;;;;1.33;1.23;;;23.40;99.90;;;;;;5020348;28;20211;-66
2023/09/06 07:22:22;;;;;;;1.27;1.17;;;23.40;99.90;;;;;;5015765;28;20203;-65
2023/09/06 07:24:50;;;;;;;1.10;1.10;;;23.50;99.90;;;;;;5016508;28;20299;-66
2023/09/06 07:27:17;;;;;;;1.00;1.00;;;23.50;99.90;;;;;;5030748;28;20248;-67
2023/09/06 07:29:45;;;;;;;1.30;1.20;;;23.60;99.90;;;;;;5027510;28;20561;-68
2023/09/06 07:32:14;;;;;;;1.13;1.10;;;23.60;99.90;;;;;;5007223;28;20345;-66
2023/09/06 07:34:41;;;;;;;1.15;1.15;;;23.70;99.90;;;;;;5022931;28;20218;-66
2023/09/06 07:37:10;;;;;;;1.10;1.10;;;23.70;99.90;;;;;;5031600;28;20235;-67
2023/09/06 07:39:37;;;;;;;1.73;1.30;;;23.80;99.90;;;;;;5023427;28;20223;-66
2023/09/06 07:42:05;;;;;;;1.20;1.20;;;23.80;99.90;;;;;;5025567;28;20681;-68
2023/09/06 07:44:32;;;;;;;1.08;1.08;;;23.90;99.90;;;;;;5012201;28;20594;-66
2023/09/06 07:47:02;;;;;;;1.30;1.30;;;23.90;99.90;;;;;;5010922;28;20726;-67
2023/09/06 07:49:31;;;;;;;1.00;1.00;;;24.00;99.90;;;;;;5015266;28;20192;-67
2023/09/06 07:51:59;;;;;;;1.27;1.27;;;24.00;99.90;;;;;;5024469;28;20195;-67
2023/09/06 07:54:26;;;;;;;0.90;0.90;;;24.10;99.90;;;;;;4999109;28;20241;-67
2023/09/06 07:56:55;;;;;;;3.15;1.13;;;24.10;99.90;;;;;;5031330;28;20252;-66
2023/09/06 07:59:23;;;;;;;1.10;1.10;;;24.20;99.90;;;;;;5021832;28;20204;-66
2023/09/06 08:01:50;;;;;;;1.00;1.00;;;24.20;99.90;;;;;;5009174;28;20647;-67
2023/09/06 08:04:19;;;;;;;1.25;1.10;;;24.20;99.90;;;;;;5017387;28;20322;-67
2023/09/06 08:06:47;;;;;;;1.45;1.35;;;24.30;99.90;;;;;;5024052;28;20225;-68
2023/09/06 08:09:17;;;;;;;1.50;1.40;;;24.30;99.90;;;;;;4995640;28;20721;-67
2023/09/06 08:11:44;;;;;;;1.45;1.35;;;24.30;99.90;;;;;;5015761;28;20540;-67
2023/09/06 08:14:14;;;;;;;1.13;1.13;;;24.40;99.90;;;;;;4998550;28;20215;-66
2023/09/06 08:16:41;;;;;;;1.63;1.45;;;24.50;99.90;;;;;;4987465;28;20691;-67
2023/09/06 08:19:08;;;;;;;1.65;1.30;;;24.40;99.90;;;;;;5025932;28;20203;-66
2023/09/06 08:21:37;;;;;;;1.20;1.20;;;24.50;99.90;;;;;;5012210;28;20571;-68
2023/09/06 08:24:04;;;;;;;1.05;1.05;;;24.50;99.90;;;;;;5027826;28;20223;-66
2023/09/06 08:26:31;;;;;;;1.17;1.17;;;24.60;99.90;;;;;;5026136;28;20535;-66
2023/09/06 08:28:58;;;;;;;2.63;1.40;;;24.60;99.90;;;;;;5011218;28;20225;-66
2023/09/06 08:31:26;;;;;;;1.80;1.40;;;24.60;99.90;;;;;;5025625;28;20210;-67
2023/09/06 08:33:53;;;;;;;1.98;1.15;;;24.70;99.90;;;;;;5029407;28;20569;-67
2023/09/06 08:36:21;;;;;;;1.30;1.20;;;24.70;99.90;;;;;;5026390;28;20191;-67
2023/09/06 08:38:49;;;;;;;3.47;1.38;;;24.70;99.90;;;;;;5031078;28;20205;-65
2023/09/06 08:41:16;;;;;;;1.92;1.23;;;24.80;99.90;;;;;;5027003;28;20237;-66
2023/09/06 08:43:44;;;;;;;1.17;1.15;;;24.90;99.90;;;;;;5022461;28;20204;-66
2023/09/06 08:46:17;;;;;;;2.78;1.10;;;24.90;99.90;;;;;;5026248;28;20237;-67
2023/09/06 08:48:45;;;;;;;3.53;1.20;;;25.00;99.90;;;;;;5030552;28;20199;-67
2023/09/06 08:51:12;;;;;;;2.85;1.58;;;25.00;99.90;;;;;;5028803;28;20209;-67
2023/09/06 08:53:41;;;;;;;2.53;1.50;;;25.00;99.90;;;;;;5006558;28;20612;-67
2023/09/06 08:56:15;;;;;;;1.67;1.58;;;25.10;99.90;;;;;;5030134;28;20253;-68
2023/09/06 08:58:43;;;;;;;2.63;1.50;;;25.20;99.90;;;;;;5030877;28;20679;-66
2023/09/06 09:01:10;;;;;;;1.92;1.55;;;25.30;99.90;;;;;;5002384;28;20566;-67
2023/09/06 09:03:37;;;;;;;1.92;1.38;;;25.30;99.90;;;;;;5023730;28;20245;-68
2023/09/06 09:06:06;;;;;;;2.22;1.55;;;25.40;99.90;;;;;;5023489;28;20248;-67
2023/09/06 09:08:34;;;;;;;1.60;1.45;;;25.40;99.80;;;;;;5030758;28;20237;-66
2023/09/06 09:11:13;;;;;;;3.58;1.80;;;25.40;99.90;;;;;;5018932;28;20197;-66
2023/09/06 09:13:41;;;;;;;1.92;1.83;;;25.40;99.90;;;;;;5029219;28;20519;-66
2023/09/06 09:16:09;;;;;;;2.15;1.80;;;25.30;99.90;;;;;;5022346;28;20219;-67
2023/09/06 09:18:41;;;;;;;2.30;1.92;;;25.40;99.90;;;;;;5027599;28;20203;-67
2023/09/06 09:21:10;;;;;;;2.90;1.77;;;25.40;99.90;;;;;;5026951;28;20201;-66
2023/09/06 09:23:44;;;;;;;2.03;1.70;;;25.50;99.90;;;;;;5030850;28;20198;-65
2023/09/06 09:26:13;;;;;;;2.70;1.60;;;25.60;99.90;;;;;;5011825;28;20252;-66
2023/09/06 09:28:42;;;;;;;1.70;1.60;;;25.60;99.90;;;;;;5030699;28;20281;-66
2023/09/06 09:31:14;;;;;;;3.45;1.70;;;25.70;99.90;;;;;;5020700;28;20200;-65
2023/09/06 09:33:43;;;;;;;1.40;1.30;;;25.80;99.90;;;;;;5009337;28;20203;-67
2023/09/06 09:36:10;;;;;;;3.65;1.52;;;25.90;99.90;;;;;;5007977;28;20706;-67
2023/09/06 09:38:41;;;;;;;1.80;1.67;;;26.00;99.90;;;;;;4994421;28;20257;-67
2023/09/06 09:41:13;;;;;;;2.13;1.52;;;26.10;99.90;;;;;;5014315;28;20195;-66
2023/09/06 09:43:40;;;;;;;1.70;1.50;;;26.10;99.80;;;;;;5011892;28;20195;-66
2023/09/06 09:46:08;;;;;;;1.35;1.25;;;26.20;99.80;;;;;;5015086;28;20200;-65
2023/09/06 09:48:39;;;;;;;1.52;1.42;;;26.30;99.70;;;;;;5015934;28;20301;-67
2023/09/06 09:51:16;;;;;;;1.20;1.20;;;26.40;99.60;;;;;;5012048;28;20231;-67
2023/09/06 09:53:43;;;;;;;1.60;1.50;;;26.40;99.50;;;;;;5019659;28;20203;-66
2023/09/06 09:56:12;;;;;;;1.70;1.60;;;26.50;99.30;;;;;;5021497;28;20269;-66
2023/09/06 09:58:40;;;;;;;1.95;1.30;;;26.60;99.20;;;;;;5005639;28;20203;-68
2023/09/06 10:01:10;;;;;;;1.58;1.40;;;26.70;99.10;;;;;;4998161;28;20207;-66
2023/09/06 10:03:39;;;;;;;2.65;1.50;;;26.70;99.10;;;;;;5003534;28;20246;-67
2023/09/06 10:06:07;;;;;;;1.58;1.40;;;26.80;99.00;;;;;;5020868;28;20203;-67
2023/09/06 10:08:37;;;;;;;1.40;1.40;;;26.90;98.80;;;;;;5023070;28;20203;-66
2023/09/06 10:11:08;;;;;;;1.40;1.40;;;27.00;98.80;;;;;;5026514;28;20195;-66
2023/09/06 10:13:37;;;;;;;1.73;1.50;;;27.10;98.60;;;;;;5022219;28;20203;-67
2023/09/06 10:16:05;;;;;;;1.60;1.50;;;27.10;98.50;;;;;;5006306;28;20867;-67
2023/09/06 10:18:33;;;;;;;1.98;1.50;;;27.10;98.40;;;;;;5005123;28;20195;-66
2023/09/06 10:21:04;;;;;;;4.13;1.77;;;27.20;98.40;;;;;;5017386;28;20194;-67
2023/09/06 10:23:32;;;;;;;1.40;1.30;;;27.30;98.20;;;;;;5021432;28;20199;-67
2023/09/06 10:26:01;;;;;;;1.25;1.15;;;27.30;98.10;;;;;;5013386;28;20196;-67
2023/09/06 10:28:32;;;;;;;1.95;1.40;;;27.40;98.00;;;;;;5013864;28;20203;-65
2023/09/06 10:31:07;;;;;;;2.88;1.45;;;27.40;97.90;;;;;;5013321;28;20603;-65
2023/09/06 10:33:57;;;;;;;2.42;1.52;;;27.40;97.90;;;;;;5018337;28;20203;-66
2023/09/06 10:36:30;;;;;;;1.67;1.58;;;27.40;97.80;;;;;;5019911;28;20207;-66
2023/09/06 10:39:16;;;;;;;2.00;1.80;;;27.50;97.70;;;;;;5023662;28;20203;-66
2023/09/06 10:42:18;;;;;;;2.45;1.95;;;27.60;97.50;;;;;;5014305;28;20245;-67
2023/09/06 10:45:13;;;;;;;2.67;1.80;;;27.60;97.40;;;;;;5032049;28;20244;-67
2023/09/06 10:47:42;;;;;;;1.45;1.38;;;27.60;97.10;;;;;;4994201;28;20238;-67
2023/09/06 10:50:15;;;;;;;1.40;1.30;;;27.70;97.10;;;;;;5012777;28;20199;-67
2023/09/06 10:52:45;;;;;;;1.60;1.50;;;27.70;97.00;;;;;;4995410;28;20203;-66
2023/09/06 10:55:20;;;;;;;4.35;1.48;;;27.80;96.90;;;;;;5011465;28;20227;-66
2023/09/06 10:57:56;;;;;;;1.50;1.40;;;27.80;96.80;;;;;;5016834;28;20228;-66
2023/09/06 11:00:31;;;;;;;1.60;1.50;;;27.80;96.80;;;;;;5015233;28;20597;-66
2023/09/06 11:03:20;;;;;;;1.65;1.55;;;27.80;96.80;;;;;;5018636;28;20634;-66
2023/09/06 11:05:53;;;;;;;1.60;1.58;;;27.80;96.70;;;;;;5015298;28;20266;-67
2023/09/06 11:08:26;;;;;;;1.30;1.30;;;27.80;96.60;;;;;;5019877;28;20207;-67
2023/09/06 11:10:59;;;;;;;1.40;1.30;;;27.80;96.50;;;;;;5015730;28;20206;-67
2023/09/06 11:13:32;;;;;;;3.50;1.70;;;27.90;96.50;;;;;;5014384;28;20305;-66
2023/09/06 11:16:03;;;;;;;2.63;1.67;;;27.90;96.40;;;;;;5024608;28;20214;-67
2023/09/06 11:18:43;;;;;;;1.70;1.60;;;28.00;96.30;;;;;;5020080;28;20199;-67
2023/09/06 11:21:11;;;;;;;1.90;1.52;;;28.10;96.20;;;;;;5025444;28;20194;-67
2023/09/06 11:23:45;;;;;;;1.30;1.20;;;28.10;96.10;;;;;;5025101;28;20232;-67
2023/09/06 11:26:12;;;;;;;2.05;1.88;;;28.10;96.00;;;;;;5027813;28;20313;-64
2023/09/06 11:28:41;;;;;;;2.63;1.40;;;28.20;95.90;;;;;;4994273;28;20311;-66
2023/09/06 11:31:21;;;;;;;1.83;1.73;;;28.20;95.70;;;;;;5021960;28;20199;-67
2023/09/06 11:33:57;;;;;;;2.28;1.50;;;28.30;95.60;;;;;;5012355;28;20191;-67
2023/09/06 11:36:30;;;;;;;1.67;1.58;;;28.30;95.50;;;;;;5012197;28;20207;-67
2023/09/06 11:39:11;;;;;;;1.88;1.77;;;28.30;95.50;;;;;;5000884;28;20206;-66
2023/09/06 11:41:40;;;;;;;1.90;1.80;;;28.20;95.50;;;;;;5014034;28;20669;-66
2023/09/06 11:44:10;;;;;;;1.48;1.38;;;28.20;95.60;;;;;;5017212;28;20199;-66
2023/09/06 11:46:38;;;;;;;1.40;1.30;;;28.10;95.70;;;;;;5020419;28;20268;-66
2023/09/06 11:49:07;;;;;;;1.60;1.50;;;28.10;95.70;;;;;;5018015;28;20705;-66
2023/09/06 11:51:35;;;;;;;1.80;1.70;;;28.00;95.70;;;;;;4996881;28;20200;-65
2023/09/06 11:54:03;;;;;;;1.35;1.27;;;28.00;95.50;;;;;;5011890;28;20196;-66
2023/09/06 11:56:36;;;;;;;1.48;1.48;;;28.10;95.40;;;;;;5012092;28;20265;-66
2023/09/06 11:59:06;;;;;;;1.67;1.58;;;28.10;95.30;;;;;;5022312;28;20215;-66
2023/09/06 12:01:39;;;;;;;1.70;1.60;;;28.10;95.10;;;;;;5021454;28;20198;-67
2023/09/06 12:04:13;;;;;;;1.20;1.20;;;28.00;94.90;;;;;;5024903;28;20559;-67
2023/09/06 12:06:42;;;;;;;1.30;1.30;;;28.00;94.80;;;;;;5025157;28;20186;-66
2023/09/06 12:09:12;;;;;;;2.08;1.60;;;28.00;94.80;;;;;;5028974;28;20249;-66
2023/09/06 12:11:42;;;;;;;1.73;1.63;;;28.00;94.90;;;;;;5022660;28;20195;-67
2023/09/06 12:14:10;;;;;;;1.60;1.50;;;27.90;95.00;;;;;;5027924;28;20690;-67
2023/09/06 12:16:37;;;;;;;1.70;1.60;;;27.90;95.10;;;;;;5017933;28;20294;-67
2023/09/06 12:19:05;;;;;;;1.60;1.55;;;27.80;95.10;;;;;;5014769;28;20198;-67
2023/09/06 12:21:34;;;;;;;1.30;1.30;;;27.80;95.30;;;;;;5030905;28;20202;-67
2023/09/06 12:24:01;;;;;;;1.50;1.50;;;27.80;95.40;;;;;;5011018;28;20562;-67
2023/09/06 12:26:28;;;;;;;2.03;1.45;;;27.70;95.50;;;;;;5016653;28;20195;-66
2023/09/06 12:28:55;;;;;;;1.42;1.25;;;27.80;95.60;;;;;;5015794;28;20228;-66
2023/09/06 12:31:22;;;;;;;1.30;1.30;;;27.80;95.70;;;;;;4995430;28;20207;-67
2023/09/06 12:33:51;;;;;;;1.20;1.20;;;27.80;95.80;;;;;;5010058;28;20245;-67
2023/09/06 12:36:19;;;;;;;1.20;1.20;;;27.80;95.80;;;;;;5011880;28;20226;-66
2023/09/06 12:38:47;;;;;;;1.45;1.42;;;27.80;95.80;;;;;;5012523;28;20678;-65
2023/09/06 12:41:14;;;;;;;1.08;1.08;;;27.90;95.90;;;;;;5004817;28;20697;-66
2023/09/06 12:43:41;;;;;;;1.77;1.40;;;27.90;95.90;;;;;;5008219;28;20202;-67
2023/09/06 12:46:11;;;;;;;1.20;1.20;;;27.90;95.80;;;;;;5011339;28;20192;-66
2023/09/06 12:48:38;;;;;;;1.50;1.40;;;27.90;95.70;;;;;;5007532;28;20191;-67
2023/09/06 12:51:07;;;;;;;1.40;1.40;;;27.80;95.70;;;;;;5017860;28;20282;-67
2023/09/06 12:53:34;;;;;;;1.90;1.42;;;27.90;95.70;;;;;;5019334;28;20535;-68
2023/09/06 12:56:03;;;;;;;2.67;1.60;;;27.90;95.60;;;;;;5025377;28;20272;-67
2023/09/06 12:58:30;;;;;;;1.60;1.50;;;27.90;95.60;;;;;;5023772;28;20191;-67
2023/09/06 13:00:58;;;;;;;1.40;1.40;;;27.90;95.60;;;;;;5002277;28;20294;-67